Time;durP1;ratioP1;P1;durP2;ratioP2;P2;SDS_P1;SDS_P2;PMS_P1;PMS_P2;Temp;Humidity;BMP_temperature;BMP_pressure;BME280_temperature;BME280_humidity;BME280_pressure;Samples;Min_cycle;Max_cycle;Signal;HPM_P1;HPM_P2
2021/10/12 00:00:47;;;;;;;8.83;3.57;;;11.90;99.90;;;;;;5029468;28;20478;-83
2021/10/12 00:03:13;;;;;;;9.93;3.50;;;11.90;99.90;;;;;;5031033;28;20033;-83
2021/10/12 00:05:38;;;;;;;10.25;3.50;;;11.90;99.90;;;;;;5029631;28;20030;-83
2021/10/12 00:08:04;;;;;;;11.55;3.80;;;11.90;99.90;;;;;;5031634;28;20045;-83
2021/10/12 00:10:30;;;;;;;10.98;3.53;;;11.90;99.90;;;;;;5030890;28;20030;-83
2021/10/12 00:12:55;;;;;;;10.73;3.63;;;11.90;99.90;;;;;;5031224;28;20048;-83
2021/10/12 00:15:21;;;;;;;11.52;3.67;;;11.90;99.90;;;;;;5029572;28;20033;-84
2021/10/12 00:17:46;;;;;;;10.82;4.15;;;11.90;99.90;;;;;;5030179;28;20390;-83
2021/10/12 00:20:12;;;;;;;14.10;4.33;;;11.90;99.90;;;;;;5030550;28;20033;-83
2021/10/12 00:22:38;;;;;;;9.87;4.23;;;11.90;99.90;;;;;;5031384;28;20057;-83
2021/10/12 00:25:04;;;;;;;10.77;3.55;;;11.80;99.90;;;;;;5034974;28;20436;-83
2021/10/12 00:27:30;;;;;;;13.00;4.65;;;11.90;99.90;;;;;;5034695;28;20521;-83
2021/10/12 00:29:55;;;;;;;12.70;4.50;;;11.90;99.90;;;;;;5034080;28;20028;-83
2021/10/12 00:32:21;;;;;;;9.47;4.03;;;11.90;99.90;;;;;;5033497;28;20060;-83
2021/10/12 00:34:46;;;;;;;10.83;4.40;;;11.90;99.90;;;;;;5034424;28;20105;-83
2021/10/12 00:37:13;;;;;;;10.83;3.80;;;11.90;99.90;;;;;;5033539;28;20025;-83
2021/10/12 00:39:39;;;;;;;11.00;3.97;;;11.90;99.90;;;;;;5034077;28;20018;-84
2021/10/12 00:42:05;;;;;;;9.73;4.03;;;11.80;99.90;;;;;;5033067;28;20053;-83
2021/10/12 00:44:32;;;;;;;10.60;4.37;;;11.90;99.90;;;;;;5034562;28;20033;-83
2021/10/12 00:47:00;;;;;;;10.37;4.40;;;11.90;99.90;;;;;;5034804;28;20038;-84
2021/10/12 00:49:26;;;;;;;11.68;4.65;;;11.80;99.90;;;;;;5033610;28;20071;-83
2021/10/12 00:51:52;;;;;;;11.77;4.13;;;11.80;99.90;;;;;;5033557;28;20132;-83
2021/10/12 00:54:17;;;;;;;10.63;4.30;;;11.80;99.90;;;;;;5033440;28;20039;-84
2021/10/12 00:56:43;;;;;;;14.67;4.50;;;11.70;99.90;;;;;;5033842;28;20393;-83
2021/10/12 00:59:09;;;;;;;12.45;4.50;;;11.80;99.90;;;;;;5033398;28;20037;-83
2021/10/12 01:01:37;;;;;;;16.50;4.90;;;11.80;99.90;;;;;;5033484;28;20030;-83
2021/10/12 01:04:03;;;;;;;13.38;4.57;;;11.80;99.90;;;;;;5033496;28;20022;-83
2021/10/12 01:06:29;;;;;;;13.97;4.73;;;11.80;99.90;;;;;;5033976;28;20445;-83
2021/10/12 01:08:54;;;;;;;13.97;4.60;;;11.80;99.90;;;;;;5034154;28;20125;-83
2021/10/12 01:11:20;;;;;;;10.43;4.57;;;11.80;99.90;;;;;;5033378;28;20033;-83
2021/10/12 01:13:46;;;;;;;11.70;5.20;;;11.80;99.90;;;;;;5033316;28;20040;-85
2021/10/12 01:16:15;;;;;;;16.23;5.63;;;11.80;99.90;;;;;;5033710;28;20112;-84
2021/10/12 01:18:53;;;;;;;13.10;5.38;;;11.70;99.90;;;;;;5033933;28;20025;-83
2021/10/12 01:21:19;;;;;;;13.82;4.60;;;11.80;99.90;;;;;;5034011;28;20414;-83
2021/10/12 01:23:44;;;;;;;10.50;4.40;;;11.80;99.90;;;;;;5034244;28;20031;-83
2021/10/12 01:26:10;;;;;;;14.55;6.03;;;11.70;99.90;;;;;;5035178;28;20029;-84
2021/10/12 01:28:36;;;;;;;14.55;5.53;;;11.80;99.90;;;;;;5034820;28;20374;-84
2021/10/12 01:31:01;;;;;;;12.17;4.77;;;11.80;99.90;;;;;;5033709;28;20068;-83
2021/10/12 01:33:27;;;;;;;13.10;5.10;;;11.80;99.90;;;;;;5035763;28;20033;-84
2021/10/12 01:35:53;;;;;;;11.57;5.27;;;11.70;99.90;;;;;;5034051;28;20026;-83
2021/10/12 01:38:19;;;;;;;9.82;4.95;;;11.70;99.90;;;;;;5036319;28;20029;-83
2021/10/12 01:40:45;;;;;;;9.40;5.17;;;11.70;99.90;;;;;;5033563;28;20076;-83
2021/10/12 01:43:10;;;;;;;12.63;5.20;;;11.70;99.90;;;;;;5036098;28;20017;-84
2021/10/12 01:45:38;;;;;;;14.53;5.47;;;11.70;99.90;;;;;;5034376;28;20036;-84
2021/10/12 01:48:04;;;;;;;14.60;5.85;;;11.70;99.90;;;;;;5033948;28;20036;-83
2021/10/12 01:50:30;;;;;;;13.43;5.83;;;11.70;99.90;;;;;;5033403;28;20049;-84
2021/10/12 01:52:55;;;;;;;10.90;5.33;;;11.70;99.90;;;;;;5034459;28;20029;-84
2021/10/12 01:55:23;;;;;;;14.07;6.03;;;11.70;99.90;;;;;;5036212;28;20033;-84
2021/10/12 01:57:49;;;;;;;11.75;5.25;;;11.70;99.90;;;;;;5034804;28;20021;-83
2021/10/12 02:00:15;;;;;;;11.63;5.40;;;11.70;99.90;;;;;;5033981;28;20018;-84
2021/10/12 02:02:41;;;;;;;17.57;5.80;;;11.70;99.90;;;;;;5035117;28;20036;-83
2021/10/12 02:05:09;;;;;;;12.93;5.43;;;11.70;99.90;;;;;;5035634;28;20037;-83
2021/10/12 02:07:35;;;;;;;11.07;4.90;;;11.80;99.90;;;;;;5036091;28;20533;-84
2021/10/12 02:10:00;;;;;;;11.67;5.10;;;11.70;99.90;;;;;;5033230;28;20264;-83
2021/10/12 02:12:26;;;;;;;9.40;4.80;;;11.70;99.90;;;;;;5032990;28;20033;-84
2021/10/12 02:14:52;;;;;;;11.43;5.03;;;11.70;99.90;;;;;;5032678;28;20028;-84
2021/10/12 02:17:17;;;;;;;10.53;4.53;;;11.70;99.90;;;;;;5034611;28;20057;-84
2021/10/12 02:19:43;;;;;;;13.13;5.20;;;11.70;99.90;;;;;;5030821;28;20037;-83
2021/10/12 02:22:08;;;;;;;10.47;4.03;;;11.60;99.90;;;;;;5033235;28;20144;-83
2021/10/12 02:24:34;;;;;;;10.07;4.37;;;11.70;99.90;;;;;;5032441;28;20061;-84
2021/10/12 02:26:59;;;;;;;9.53;4.00;;;11.70;99.90;;;;;;5034582;28;20037;-84
2021/10/12 02:29:25;;;;;;;12.80;4.33;;;11.70;99.90;;;;;;5033877;28;20391;-84
2021/10/12 02:31:51;;;;;;;13.67;3.97;;;11.70;99.90;;;;;;5032921;28;20045;-84
2021/10/12 02:34:16;;;;;;;12.93;4.20;;;11.70;99.90;;;;;;5033861;28;20533;-84
2021/10/12 02:36:42;;;;;;;8.37;3.73;;;11.70;99.90;;;;;;5033133;28;20105;-83
2021/10/12 02:39:08;;;;;;;7.37;3.50;;;11.60;99.90;;;;;;5032222;28;20065;-83
2021/10/12 02:41:33;;;;;;;10.33;3.43;;;11.70;99.90;;;;;;5032425;28;20029;-84
2021/10/12 02:43:59;;;;;;;9.53;3.57;;;11.70;99.90;;;;;;5033510;28;20494;-84
2021/10/12 02:46:24;;;;;;;8.43;3.80;;;11.70;99.90;;;;;;5032245;28;20043;-84
2021/10/12 02:48:50;;;;;;;10.63;4.40;;;11.70;99.90;;;;;;5034207;28;20150;-84
2021/10/12 02:51:16;;;;;;;13.90;5.00;;;11.70;99.90;;;;;;5034752;28;20102;-84
2021/10/12 02:53:42;;;;;;;14.03;4.33;;;11.70;99.90;;;;;;5033023;28;20046;-84
2021/10/12 02:56:08;;;;;;;11.93;4.30;;;11.70;99.90;;;;;;5031559;28;20034;-83
2021/10/12 02:58:33;;;;;;;9.83;4.23;;;11.70;99.90;;;;;;5033150;28;20470;-84
2021/10/12 03:00:59;;;;;;;11.73;4.10;;;11.70;99.90;;;;;;5032676;28;20044;-84
2021/10/12 03:03:24;;;;;;;11.10;4.43;;;11.80;99.90;;;;;;5060590;23;20052;-86
2021/10/12 03:05:50;;;;;;;12.17;4.40;;;11.70;99.90;;;;;;5050924;28;20128;-85
2021/10/12 03:08:16;;;;;;;10.00;5.00;;;11.70;99.90;;;;;;5049953;28;20119;-84
2021/10/12 03:10:42;;;;;;;8.60;4.40;;;11.70;99.90;;;;;;5048838;28;20180;-85
2021/10/12 03:13:08;;;;;;;12.17;4.57;;;11.70;99.90;;;;;;5049312;28;20031;-86
2021/10/12 03:15:34;;;;;;;8.27;3.90;;;11.70;99.90;;;;;;5049325;28;20028;-85
2021/10/12 03:17:59;;;;;;;10.70;4.23;;;11.70;99.90;;;;;;5049560;28;20389;-85
2021/10/12 03:20:25;;;;;;;11.87;4.90;;;11.60;99.90;;;;;;5048502;28;20079;-85
2021/10/12 03:22:51;;;;;;;8.03;4.70;;;11.60;99.90;;;;;;5049211;28;20111;-84
2021/10/12 03:25:16;;;;;;;13.17;4.70;;;11.60;99.90;;;;;;5049200;28;20021;-84
2021/10/12 03:27:42;;;;;;;9.97;4.83;;;11.60;99.90;;;;;;5049436;28;20035;-84
2021/10/12 03:30:08;;;;;;;10.80;4.50;;;11.60;99.90;;;;;;5048821;28;20021;-87
2021/10/12 03:32:34;;;;;;;10.27;4.40;;;11.60;99.90;;;;;;5049217;28;20086;-85
2021/10/12 03:35:00;;;;;;;11.10;4.40;;;11.60;99.90;;;;;;5049878;28;20025;-86
2021/10/12 03:37:25;;;;;;;12.33;4.40;;;11.70;99.90;;;;;;5050672;28;20107;-86
2021/10/12 03:39:51;;;;;;;12.83;4.73;;;11.70;99.90;;;;;;5049795;28;20025;-86
2021/10/12 03:42:16;;;;;;;12.43;4.93;;;11.70;99.90;;;;;;5050452;28;20040;-86
2021/10/12 03:44:42;;;;;;;8.90;4.17;;;11.60;99.90;;;;;;5049207;28;20107;-85
2021/10/12 03:47:08;;;;;;;12.60;4.87;;;11.60;99.90;;;;;;5050664;28;20036;-85
2021/10/12 03:49:33;;;;;;;15.53;4.60;;;11.60;99.90;;;;;;5048072;28;20047;-86
2021/10/12 03:52:01;;;;;;;12.63;5.80;;;11.60;99.90;;;;;;5048978;28;20033;-85
2021/10/12 03:54:27;;;;;;;14.07;5.97;;;11.60;99.90;;;;;;5049152;28;20118;-85
2021/10/12 03:56:53;;;;;;;11.60;5.43;;;11.70;99.90;;;;;;5049755;28;20056;-85
2021/10/12 03:59:18;;;;;;;9.37;5.20;;;11.70;99.90;;;;;;5053975;28;20506;-85
2021/10/12 04:01:44;;;;;;;10.63;5.40;;;11.70;99.90;;;;;;5053120;28;20021;-85
2021/10/12 04:04:09;;;;;;;10.77;5.57;;;11.70;99.90;;;;;;5053758;28;20075;-85
2021/10/12 04:06:35;;;;;;;14.00;5.83;;;11.70;99.90;;;;;;5053069;28;20461;-84
2021/10/12 04:09:01;;;;;;;14.73;5.80;;;11.70;99.90;;;;;;5053709;28;20025;-85
2021/10/12 04:11:29;;;;;;;14.53;6.50;;;11.60;99.90;;;;;;5054284;28;20064;-86
2021/10/12 04:13:55;;;;;;;15.85;6.57;;;11.70;99.90;;;;;;5054078;28;20029;-86
2021/10/12 04:16:21;;;;;;;12.60;6.77;;;11.60;99.90;;;;;;5054292;28;20085;-85
2021/10/12 04:18:46;;;;;;;18.73;8.23;;;11.60;99.90;;;;;;5052646;28;20347;-85
2021/10/12 04:21:12;;;;;;;18.60;8.60;;;11.60;99.90;;;;;;5053820;28;20025;-85
2021/10/12 04:23:39;;;;;;;21.53;9.30;;;11.60;99.90;;;;;;5052389;28;20107;-86
2021/10/12 04:26:08;;;;;;;17.57;7.27;;;11.60;99.90;;;;;;5054302;28;20028;-86
2021/10/12 04:28:34;;;;;;;17.87;7.50;;;11.60;99.90;;;;;;5054712;28;20108;-86
2021/10/12 04:31:00;;;;;;;12.67;7.07;;;11.60;99.90;;;;;;5052405;28;20036;-87
2021/10/12 04:33:25;;;;;;;16.00;7.37;;;11.60;99.90;;;;;;5052647;28;20137;-88
2021/10/12 04:35:51;;;;;;;15.83;6.97;;;11.50;99.90;;;;;;5052206;28;20032;-86
2021/10/12 04:38:17;;;;;;;14.10;7.07;;;11.50;99.90;;;;;;5054182;28;20392;-87
2021/10/12 04:40:42;;;;;;;18.60;8.17;;;11.50;99.90;;;;;;5051619;28;20418;-86
2021/10/12 04:43:08;;;;;;;16.43;9.07;;;11.50;99.90;;;;;;5052110;28;20056;-86
2021/10/12 04:45:36;;;;;;;14.90;7.57;;;11.50;99.90;;;;;;5053403;28;20032;-84
2021/10/12 04:48:03;;;;;;;14.93;7.43;;;11.50;99.90;;;;;;5055756;28;20099;-84
2021/10/12 04:50:29;;;;;;;14.60;7.30;;;11.50;99.90;;;;;;5052864;28;20029;-84
2021/10/12 04:52:54;;;;;;;17.07;6.93;;;11.50;99.90;;;;;;5052819;28;20114;-84
2021/10/12 04:55:20;;;;;;;14.00;6.70;;;11.50;99.90;;;;;;5054517;28;20021;-85
2021/10/12 04:57:46;;;;;;;13.80;6.00;;;11.50;99.90;;;;;;5053048;28;20104;-85
2021/10/12 05:00:12;;;;;;;18.83;6.90;;;11.50;99.90;;;;;;5051072;28;20180;-85
2021/10/12 05:02:38;;;;;;;20.87;7.77;;;11.50;99.90;;;;;;5052863;28;20064;-86
2021/10/12 05:05:04;;;;;;;20.37;7.70;;;11.50;99.90;;;;;;5051626;28;20060;-85
2021/10/12 05:07:29;;;;;;;14.33;6.97;;;11.50;99.90;;;;;;5053043;28;20029;-85
2021/10/12 05:09:56;;;;;;;14.83;6.27;;;11.50;99.90;;;;;;5050873;28;20029;-85
2021/10/12 05:12:22;;;;;;;14.90;6.60;;;11.50;99.90;;;;;;5052839;28;20032;-85
2021/10/12 05:14:47;;;;;;;17.13;6.50;;;11.50;99.90;;;;;;5052284;28;20021;-85
2021/10/12 05:17:20;;;;;;;16.10;6.80;;;11.40;99.90;;;;;;5052998;28;20080;-85
2021/10/12 05:19:46;;;;;;;16.87;6.67;;;11.50;99.90;;;;;;5049589;28;20036;-85
2021/10/12 05:22:12;;;;;;;11.93;5.67;;;11.50;99.90;;;;;;5051341;28;20025;-85
2021/10/12 05:24:37;;;;;;;17.90;6.17;;;11.40;99.90;;;;;;5051073;28;20025;-84
2021/10/12 05:27:03;;;;;;;14.37;5.87;;;11.50;99.90;;;;;;5051202;28;20036;-85
2021/10/12 05:29:29;;;;;;;14.90;6.30;;;11.50;99.90;;;;;;5050285;28;20029;-86
2021/10/12 05:31:55;;;;;;;15.50;5.87;;;11.50;99.90;;;;;;5051040;28;20040;-84
2021/10/12 05:34:21;;;;;;;18.73;5.83;;;11.50;99.90;;;;;;5049715;28;20025;-85
2021/10/12 05:36:46;;;;;;;10.57;5.57;;;11.50;99.90;;;;;;5051189;28;20083;-85
2021/10/12 05:39:12;;;;;;;19.83;7.17;;;11.50;99.90;;;;;;5050365;28;20462;-85
2021/10/12 05:41:37;;;;;;;16.13;7.23;;;11.40;99.90;;;;;;5052630;28;20025;-85
2021/10/12 05:44:03;;;;;;;16.17;6.33;;;11.50;99.90;;;;;;5050567;28;20025;-85
2021/10/12 05:46:29;;;;;;;16.30;5.80;;;11.50;99.90;;;;;;5051004;28;20021;-85
2021/10/12 05:48:56;;;;;;;12.93;5.70;;;11.50;99.90;;;;;;5049517;28;20029;-84
2021/10/12 05:51:24;;;;;;;18.70;6.23;;;11.50;99.90;;;;;;5051288;28;20497;-86
2021/10/12 05:53:52;;;;;;;13.67;5.37;;;11.50;99.90;;;;;;5050454;28;20021;-85
2021/10/12 05:59:01;;;;;;;13.20;5.40;;;11.70;99.90;;;;;;5051391;28;20036;-86
2021/10/12 06:01:27;;;;;;;12.93;5.47;;;11.70;99.90;;;;;;5052689;28;20446;-87
2021/10/12 06:03:52;;;;;;;14.13;5.20;;;11.70;99.90;;;;;;5050712;28;20029;-89
2021/10/12 06:06:18;;;;;;;11.20;5.10;;;11.70;99.90;;;;;;5051391;28;20032;-87
2021/10/12 06:08:44;;;;;;;12.00;4.67;;;11.70;99.90;;;;;;5051073;28;20035;-87
2021/10/12 06:11:10;;;;;;;13.83;5.33;;;11.60;99.90;;;;;;5050603;28;20052;-87
2021/10/12 06:13:39;;;;;;;14.63;4.80;;;11.70;99.90;;;;;;5051450;28;20104;-85
2021/10/12 06:16:05;;;;;;;14.45;4.43;;;11.60;99.90;;;;;;5051313;28;20029;-87
2021/10/12 06:18:31;;;;;;;12.15;4.20;;;11.60;99.90;;;;;;5052488;28;20092;-85
2021/10/12 06:20:56;;;;;;;9.57;4.03;;;11.60;99.90;;;;;;5050031;28;20024;-84
2021/10/12 06:23:23;;;;;;;12.03;4.17;;;11.60;99.90;;;;;;5051155;28;20025;-86
2021/10/12 06:25:51;;;;;;;9.07;3.90;;;11.60;99.90;;;;;;5050966;28;20025;-85
2021/10/12 06:28:18;;;;;;;11.63;3.97;;;11.60;99.90;;;;;;5050604;28;20048;-86
2021/10/12 06:30:44;;;;;;;15.10;4.13;;;11.60;99.90;;;;;;5049859;28;20025;-86
2021/10/12 06:33:10;;;;;;;9.60;3.95;;;11.60;99.90;;;;;;5050497;28;20112;-87
2021/10/12 06:35:36;;;;;;;12.90;3.93;;;11.60;99.90;;;;;;5049487;28;20025;-87
2021/10/12 06:38:03;;;;;;;10.40;4.03;;;11.60;99.90;;;;;;5051927;28;20029;-86
2021/10/12 06:40:30;;;;;;;12.30;3.53;;;11.60;99.90;;;;;;5049608;28;20154;-86
2021/10/12 06:42:57;;;;;;;10.10;3.60;;;11.60;99.90;;;;;;5051556;28;20036;-86
2021/10/12 06:45:23;;;;;;;7.43;3.60;;;11.60;99.90;;;;;;5050491;28;20029;-84
2021/10/12 06:47:49;;;;;;;11.17;3.40;;;11.60;99.90;;;;;;5049580;28;20185;-84
2021/10/12 06:50:16;;;;;;;11.53;3.83;;;11.60;99.90;;;;;;5048934;28;20094;-84
2021/10/12 06:52:42;;;;;;;11.87;3.60;;;11.60;99.90;;;;;;5050792;28;20071;-84
2021/10/12 06:55:09;;;;;;;14.00;3.50;;;11.70;99.90;;;;;;5050068;28;20470;-84
2021/10/12 06:57:36;;;;;;;9.70;3.70;;;11.60;99.90;;;;;;5051331;28;20020;-84
2021/10/12 07:00:05;;;;;;;10.23;3.60;;;11.70;99.90;;;;;;5050265;28;20029;-84
2021/10/12 07:02:30;;;;;;;8.50;3.45;;;11.70;99.90;;;;;;5050769;28;20043;-86
2021/10/12 07:04:56;;;;;;;9.23;3.67;;;11.60;99.90;;;;;;5049743;28;20022;-85
2021/10/12 07:07:22;;;;;;;9.40;3.57;;;11.60;99.90;;;;;;5050350;28;20473;-84
2021/10/12 07:09:47;;;;;;;10.37;3.73;;;11.60;99.90;;;;;;5052850;28;20032;-83
2021/10/12 07:12:13;;;;;;;8.03;3.47;;;11.60;99.90;;;;;;5052632;28;20039;-84
2021/10/12 07:14:39;;;;;;;9.63;3.60;;;11.60;99.90;;;;;;5052111;28;20029;-85
2021/10/12 07:17:05;;;;;;;7.67;3.43;;;11.60;99.90;;;;;;5053818;28;20033;-85
2021/10/12 07:19:30;;;;;;;9.00;3.73;;;11.60;99.90;;;;;;5051428;28;20025;-84
2021/10/12 07:21:56;;;;;;;8.70;4.13;;;11.60;99.90;;;;;;5051880;28;20036;-84
2021/10/12 07:24:22;;;;;;;10.20;3.80;;;11.60;99.90;;;;;;5052321;28;20425;-84
2021/10/12 07:26:48;;;;;;;9.23;3.73;;;11.70;99.90;;;;;;5054267;28;20040;-83
2021/10/12 07:29:14;;;;;;;12.20;3.80;;;11.70;99.90;;;;;;5053475;28;20063;-83
2021/10/12 07:31:41;;;;;;;15.27;4.03;;;11.70;99.90;;;;;;5053304;28;20129;-83
2021/10/12 07:34:07;;;;;;;8.93;3.83;;;11.70;99.90;;;;;;5053582;28;20028;-83
2021/10/12 07:36:33;;;;;;;9.93;3.83;;;11.70;99.90;;;;;;5052835;28;20044;-84
2021/10/12 07:38:59;;;;;;;17.77;5.50;;;11.70;99.90;;;;;;5054622;28;20025;-84
2021/10/12 07:41:24;;;;;;;10.30;4.10;;;11.80;99.90;;;;;;5056751;28;20025;-83
2021/10/12 07:43:50;;;;;;;12.23;4.20;;;11.80;99.90;;;;;;5050850;28;20039;-85
2021/10/12 07:46:16;;;;;;;10.27;3.80;;;11.70;99.90;;;;;;5050503;28;20080;-85
2021/10/12 07:48:42;;;;;;;10.70;4.30;;;11.80;99.90;;;;;;5049290;28;20045;-84
2021/10/12 07:51:07;;;;;;;15.30;5.60;;;11.80;99.90;;;;;;5049279;28;20040;-84
2021/10/12 07:53:36;;;;;;;10.80;4.87;;;11.80;99.90;;;;;;5050011;28;20409;-85
2021/10/12 07:56:05;;;;;;;10.80;4.70;;;11.90;99.90;;;;;;5050256;28;20128;-85
2021/10/12 07:58:31;;;;;;;12.32;5.68;;;11.90;99.90;;;;;;5052155;28;20421;-85
2021/10/12 08:00:56;;;;;;;16.37;6.27;;;11.90;99.90;;;;;;5053569;28;20072;-84
2021/10/12 08:03:22;;;;;;;10.27;5.80;;;11.90;99.90;;;;;;5053609;28;20033;-85
2021/10/12 08:05:48;;;;;;;15.23;6.60;;;11.90;99.90;;;;;;5054324;28;20064;-84
2021/10/12 08:08:13;;;;;;;14.43;6.70;;;11.90;99.90;;;;;;5054904;28;20021;-84
2021/10/12 08:10:39;;;;;;;14.53;6.67;;;11.90;99.90;;;;;;5053410;28;20029;-84
2021/10/12 08:13:09;;;;;;;14.03;6.67;;;11.90;99.90;;;;;;5046860;28;20021;-85
2021/10/12 08:15:36;;;;;;;12.57;6.30;;;11.90;99.90;;;;;;5049578;28;20036;-84
2021/10/12 08:18:02;;;;;;;11.97;5.90;;;11.90;99.90;;;;;;5050880;28;20028;-85
2021/10/12 08:20:27;;;;;;;13.10;5.78;;;11.90;99.90;;;;;;5048388;28;20029;-84
2021/10/12 08:22:54;;;;;;;14.60;6.60;;;11.90;99.90;;;;;;5050510;28;20078;-85
2021/10/12 08:25:20;;;;;;;12.30;6.40;;;11.90;99.90;;;;;;5049153;28;20029;-84
2021/10/12 08:27:46;;;;;;;13.40;6.67;;;12.00;99.90;;;;;;5050438;28;20028;-83
2021/10/12 08:30:12;;;;;;;14.10;6.77;;;12.00;99.90;;;;;;5049597;28;20040;-84
2021/10/12 08:32:39;;;;;;;10.20;6.60;;;12.00;99.90;;;;;;5050344;28;20036;-85
2021/10/12 08:35:08;;;;;;;14.07;6.50;;;12.00;99.90;;;;;;5050455;28;20116;-84
2021/10/12 08:37:34;;;;;;;14.27;9.52;;;11.90;99.90;;;;;;5051114;28;20041;-85
2021/10/12 08:40:00;;;;;;;18.90;11.60;;;11.90;99.90;;;;;;5049749;28;20029;-84
2021/10/12 08:42:30;;;;;;;15.05;7.72;;;11.90;99.90;;;;;;5051205;28;20353;-83
2021/10/12 08:45:02;;;;;;;13.27;6.63;;;12.00;99.90;;;;;;5053633;28;20013;-83
2021/10/12 08:47:30;;;;;;;12.63;7.57;;;12.00;99.90;;;;;;5053375;28;20052;-82
2021/10/12 08:49:57;;;;;;;11.03;6.43;;;12.00;99.90;;;;;;5053666;28;20029;-83
2021/10/12 08:52:23;;;;;;;11.07;6.57;;;12.00;99.90;;;;;;5054650;28;20029;-84
2021/10/12 08:54:51;;;;;;;12.33;6.90;;;11.90;99.90;;;;;;5054376;28;20036;-85
2021/10/12 08:57:38;;;;;;;11.80;6.40;;;11.90;99.90;;;;;;5054169;28;20021;-83
2021/10/12 09:00:28;;;;;;;12.33;6.93;;;11.90;99.90;;;;;;5051997;28;20025;-84
2021/10/12 09:06:02;;;;;;;10.40;6.73;;;11.90;99.90;;;;;;5053184;28;20105;-83
2021/10/12 09:08:29;;;;;;;10.83;6.77;;;12.00;99.90;;;;;;5052700;28;20410;-85
2021/10/12 09:10:58;;;;;;;14.00;7.20;;;12.00;99.90;;;;;;5051721;28;20041;-84
2021/10/12 09:13:25;;;;;;;15.40;7.47;;;12.00;99.90;;;;;;5052357;28;20033;-83
2021/10/12 09:16:08;;;;;;;13.40;6.50;;;12.10;99.90;;;;;;5052106;28;20373;-84
2021/10/12 09:18:46;;;;;;;10.47;6.23;;;12.10;99.90;;;;;;5054053;28;20388;-84
2021/10/12 09:21:16;;;;;;;13.33;6.87;;;12.10;99.90;;;;;;5052224;28;20049;-83
2021/10/12 09:23:42;;;;;;;11.57;7.25;;;12.00;99.90;;;;;;5053874;28;20082;-85
2021/10/12 09:26:22;;;;;;;10.97;6.77;;;12.00;99.90;;;;;;5052988;28;20033;-84
2021/10/12 09:28:48;;;;;;;13.73;7.10;;;12.10;99.90;;;;;;5052945;28;20032;-83
2021/10/12 09:31:14;;;;;;;11.17;7.20;;;12.10;99.90;;;;;;5051992;28;20090;-83
2021/10/12 09:33:50;;;;;;;10.60;7.35;;;12.10;99.90;;;;;;5051162;28;20121;-83
2021/10/12 09:36:36;;;;;;;11.13;6.65;;;12.10;99.90;;;;;;5053292;28;20025;-85
2021/10/12 09:39:03;;;;;;;8.20;6.47;;;12.10;99.90;;;;;;5052926;28;20559;-83
2021/10/12 09:41:29;;;;;;;10.57;6.93;;;12.10;99.90;;;;;;5051335;28;20108;-84
2021/10/12 09:44:18;;;;;;;10.83;6.97;;;12.10;99.90;;;;;;5051582;28;20025;-84
2021/10/12 09:46:46;;;;;;;10.05;6.78;;;12.10;99.90;;;;;;5051638;28;20450;-83
2021/10/12 09:49:15;;;;;;;8.98;7.00;;;12.10;99.90;;;;;;5049576;28;20045;-84
2021/10/12 09:52:10;;;;;;;9.45;6.75;;;12.10;99.90;;;;;;5053211;28;20416;-84
2021/10/12 09:54:48;;;;;;;9.77;6.55;;;12.20;99.90;;;;;;5051722;28;20029;-83
2021/10/12 09:57:19;;;;;;;10.10;6.68;;;12.20;99.90;;;;;;5051517;28;20070;-85
2021/10/12 09:59:45;;;;;;;9.57;7.18;;;12.20;99.90;;;;;;5051907;28;20509;-85
2021/10/12 10:02:19;;;;;;;12.70;8.25;;;12.20;99.90;;;;;;5052424;28;20075;-84
2021/10/12 10:04:46;;;;;;;9.80;7.00;;;12.20;99.90;;;;;;5050721;28;20067;-84
2021/10/12 10:07:24;;;;;;;11.50;7.50;;;12.20;99.90;;;;;;5052348;28;20059;-84
2021/10/12 10:09:54;;;;;;;9.77;7.22;;;12.30;99.90;;;;;;5051424;28;20052;-84
2021/10/12 10:12:20;;;;;;;9.27;7.50;;;12.30;99.90;;;;;;5053633;28;20025;-85
2021/10/12 10:14:45;;;;;;;10.40;7.90;;;12.30;99.90;;;;;;5051927;28;20112;-85
2021/10/12 10:17:13;;;;;;;9.60;7.55;;;12.40;99.90;;;;;;5050982;28;20132;-84
2021/10/12 10:19:45;;;;;;;10.90;7.65;;;12.30;99.90;;;;;;5050572;28;20048;-84
2021/10/12 10:22:57;;;;;;;12.07;8.77;;;12.40;99.90;;;;;;5050111;28;20025;-83
2021/10/12 10:25:34;;;;;;;10.93;8.48;;;12.40;99.90;;;;;;5052348;28;20025;-84
2021/10/12 10:28:19;;;;;;;13.02;8.70;;;12.40;99.90;;;;;;5052256;28;20588;-85
2021/10/12 10:30:49;;;;;;;11.17;8.17;;;12.40;99.90;;;;;;5053418;28;20021;-84
2021/10/12 10:33:34;;;;;;;10.67;8.40;;;12.40;99.90;;;;;;5052699;28;20021;-83
2021/10/12 10:36:15;;;;;;;14.48;8.85;;;12.40;99.90;;;;;;5053502;28;20087;-83
2021/10/12 10:38:43;;;;;;;14.13;9.43;;;12.40;99.90;;;;;;5054501;28;20067;-83
2021/10/12 10:41:13;;;;;;;15.48;9.35;;;12.40;99.90;;;;;;5052878;28;20021;-84
2021/10/12 10:43:55;;;;;;;12.02;9.50;;;12.40;99.90;;;;;;5053489;28;20402;-83
2021/10/12 10:46:34;;;;;;;14.03;9.43;;;12.40;99.90;;;;;;5054428;28;20067;-84
2021/10/12 10:49:13;;;;;;;13.65;9.60;;;12.40;99.90;;;;;;5052430;28;20035;-85
2021/10/12 10:51:59;;;;;;;13.38;9.25;;;12.40;99.90;;;;;;5053787;28;20438;-85
2021/10/12 10:54:42;;;;;;;13.00;9.27;;;12.40;99.90;;;;;;5049975;28;20460;-84
2021/10/12 10:57:19;;;;;;;13.57;10.70;;;12.50;99.90;;;;;;5050926;28;20033;-85
2021/10/12 10:59:45;;;;;;;17.30;12.53;;;12.50;99.90;;;;;;5050423;28;20021;-84
2021/10/12 11:02:26;;;;;;;16.98;11.30;;;12.60;99.90;;;;;;5052985;28;20120;-86
2021/10/12 11:04:56;;;;;;;18.10;10.52;;;12.70;99.90;;;;;;5052272;28;20048;-84
2021/10/12 11:07:24;;;;;;;19.40;11.63;;;12.90;99.90;;;;;;5052333;28;20080;-86
2021/10/12 11:09:50;;;;;;;17.77;11.32;;;13.00;99.90;;;;;;5050400;28;20021;-85
2021/10/12 11:12:17;;;;;;;16.33;11.68;;;13.10;99.90;;;;;;5051537;28;20111;-85
2021/10/12 11:14:43;;;;;;;15.00;10.40;;;13.20;99.90;;;;;;5050848;28;20438;-85
2021/10/12 11:17:09;;;;;;;14.18;9.90;;;13.20;99.90;;;;;;5052391;28;20055;-84
2021/10/12 11:20:02;;;;;;;16.85;10.48;;;13.10;99.90;;;;;;5050213;28;20100;-83
2021/10/12 11:22:29;;;;;;;15.70;10.10;;;13.10;99.90;;;;;;5050881;28;20075;-84
2021/10/12 11:24:55;;;;;;;17.38;11.38;;;13.00;99.90;;;;;;5050389;28;20111;-84
2021/10/12 11:27:22;;;;;;;16.60;10.65;;;13.00;99.90;;;;;;5053787;28;20387;-83
2021/10/12 11:30:07;;;;;;;19.23;11.70;;;12.90;99.90;;;;;;5052193;28;20508;-83
2021/10/12 11:32:32;;;;;;;18.55;10.90;;;12.90;99.90;;;;;;5055053;28;20092;-83
2021/10/12 11:35:37;;;;;;;18.88;11.07;;;12.90;99.90;;;;;;5053170;28;20028;-83
2021/10/12 11:38:05;;;;;;;20.48;11.38;;;12.80;99.90;;;;;;5035079;28;20037;-83
2021/10/12 11:40:32;;;;;;;20.52;9.38;;;12.80;99.90;;;;;;5052267;28;20021;-83
2021/10/12 11:43:01;;;;;;;15.13;9.55;;;12.80;99.90;;;;;;5052223;28;20025;-84
2021/10/12 11:45:28;;;;;;;16.65;9.15;;;12.70;99.90;;;;;;5051499;28;20026;-84
2021/10/12 11:47:54;;;;;;;13.07;8.88;;;12.80;99.90;;;;;;5052850;28;20029;-85
2021/10/12 11:50:20;;;;;;;14.38;8.65;;;12.70;99.90;;;;;;5050932;28;20488;-85
2021/10/12 11:52:48;;;;;;;13.60;8.25;;;12.70;99.90;;;;;;5052340;28;20037;-84
2021/10/12 11:55:15;;;;;;;11.15;8.10;;;12.70;99.90;;;;;;5053604;28;20028;-84
2021/10/12 11:57:46;;;;;;;12.32;7.97;;;12.70;99.90;;;;;;5053316;28;20385;-85
2021/10/12 12:00:12;;;;;;;14.18;8.85;;;12.80;99.90;;;;;;5052100;28;20385;-84
2021/10/12 12:02:40;;;;;;;13.63;8.90;;;12.70;99.90;;;;;;5052249;28;20040;-85
2021/10/12 12:05:06;;;;;;;14.18;8.32;;;12.70;99.90;;;;;;5068757;23;20099;-82
2021/10/12 12:07:36;;;;;;;10.35;7.43;;;12.70;99.90;;;;;;5034702;28;20064;-82
2021/10/12 12:10:02;;;;;;;16.17;9.02;;;12.70;99.90;;;;;;5031766;28;20501;-82
2021/10/12 12:12:28;;;;;;;12.57;7.82;;;12.70;99.90;;;;;;5034088;28;20089;-83
2021/10/12 12:14:54;;;;;;;12.32;8.02;;;12.70;99.90;;;;;;5034332;28;20049;-83
2021/10/12 12:17:22;;;;;;;15.13;8.35;;;12.70;99.90;;;;;;5035642;28;20376;-82
2021/10/12 12:19:56;;;;;;;14.30;8.20;;;12.70;99.90;;;;;;5034507;28;20029;-83
2021/10/12 12:22:28;;;;;;;13.45;7.80;;;12.80;99.90;;;;;;5037529;28;20040;-83
2021/10/12 12:25:03;;;;;;;18.13;7.53;;;12.70;99.90;;;;;;5036792;28;20497;-83
2021/10/12 12:27:34;;;;;;;13.25;6.78;;;12.80;99.90;;;;;;5038589;28;20025;-83
2021/10/12 12:30:06;;;;;;;14.63;8.65;;;12.80;99.90;;;;;;5036235;28;20127;-84
2021/10/12 12:32:32;;;;;;;20.35;9.82;;;12.80;99.90;;;;;;5036979;28;20151;-83
2021/10/12 12:34:59;;;;;;;18.00;9.35;;;12.90;99.90;;;;;;5035817;28;20022;-83
2021/10/12 12:37:27;;;;;;;15.98;9.48;;;12.90;99.90;;;;;;5034308;28;20041;-84
2021/10/12 12:39:53;;;;;;;17.55;8.68;;;13.00;99.90;;;;;;5034204;28;20128;-82
2021/10/12 12:42:35;;;;;;;22.95;8.98;;;13.10;99.90;;;;;;5049205;28;20344;-82
2021/10/12 12:45:22;;;;;;;10.23;6.03;;;13.20;99.90;;;;;;5053507;28;20413;-85
2021/10/12 12:47:58;;;;;;;10.65;6.38;;;13.20;99.90;;;;;;5053676;28;20044;-87